createdAt,value
2023-02-05T00:00:35.306Z,25.31
2023-02-05T00:01:35.272Z,25.31
2023-02-05T00:02:35.259Z,25.31
2023-02-05T00:03:35.306Z,25.31
2023-02-05T00:04:35.206Z,25.31
2023-02-05T02:33:34.142Z,25.26
2023-02-05T02:34:34.125Z,25.26
2023-02-05T02:35:34.363Z,25.28
2023-02-05T02:36:34.027Z,25.25
2023-02-05T02:37:33.988Z,25.29
2023-02-05T02:38:33.941Z,25.29
2023-02-05T02:39:33.904Z,25.28
2023-02-05T02:40:33.865Z,25.26
2023-02-05T02:41:33.829Z,25.29
2023-02-05T02:42:33.790Z,25.29
2023-02-05T02:43:33.756Z,25.28
2023-02-05T02:44:33.705Z,25.28
2023-02-05T02:45:33.989Z,25.23
2023-02-05T02:46:33.709Z,25.26
2023-02-05T02:47:33.611Z,25.26
2023-02-05T02:48:33.546Z,25.26
2023-02-05T02:49:33.498Z,25.26
2023-02-05T02:50:33.457Z,25.25
2023-02-05T02:51:33.414Z,25.25
2023-02-05T02:52:33.382Z,25.25
2023-02-05T02:53:33.330Z,25.22
2023-02-05T02:54:33.283Z,25.25
2023-02-05T02:55:33.546Z,25.25
2023-02-05T02:56:33.188Z,25.25
2023-02-05T02:57:33.154Z,25.25
2023-02-05T02:58:33.104Z,25.25
2023-02-05T02:59:33.061Z,25.26
2023-02-05T03:00:33.164Z,25.26
2023-02-05T03:01:32.975Z,25.25
2023-02-05T03:02:32.938Z,25.25
2023-02-05T03:03:32.998Z,25.25
2023-02-05T03:04:32.845Z,25.25
2023-02-05T03:05:33.288Z,25.23
2023-02-05T03:06:32.756Z,25.25
2023-02-05T03:07:32.716Z,25.25
2023-02-05T03:08:32.674Z,25.23
2023-02-05T03:09:32.633Z,25.25
2023-02-05T03:10:32.605Z,25.25
2023-02-05T03:11:32.561Z,25.23
2023-02-05T03:12:32.545Z,25.25
2023-02-05T03:13:32.477Z,25.25
2023-02-05T03:14:32.444Z,25.25
2023-02-05T03:15:32.682Z,25.26
2023-02-05T03:16:32.434Z,25.22
2023-02-05T03:17:32.324Z,25.23
2023-02-05T03:18:32.286Z,25.25
2023-02-05T03:19:32.279Z,25.25
2023-02-05T03:20:32.206Z,25.23
2023-02-05T03:21:32.177Z,25.26
2023-02-05T03:22:32.130Z,25.23
2023-02-05T03:23:32.097Z,25.22
2023-02-05T03:24:32.057Z,25.25
2023-02-05T03:25:32.393Z,25.25
2023-02-05T03:26:31.985Z,25.23
2023-02-05T03:27:31.948Z,25.23
2023-02-05T03:28:31.978Z,25.25
2023-02-05T03:29:31.880Z,25.23
2023-02-05T03:30:31.868Z,25.23
2023-02-05T03:31:31.830Z,25.26
2023-02-05T03:32:31.754Z,25.23
2023-02-05T03:33:31.730Z,25.23
2023-02-05T03:34:31.681Z,25.23
2023-02-05T03:35:31.792Z,25.23
2023-02-05T03:36:31.600Z,25.22
2023-02-05T03:37:31.586Z,25.23
2023-02-05T03:38:31.523Z,25.23
2023-02-05T03:39:31.478Z,25.25
2023-02-05T03:40:31.440Z,25.25
2023-02-05T03:41:31.399Z,25.22
2023-02-05T03:42:31.355Z,25.23
2023-02-05T03:43:31.310Z,25.23
2023-02-05T03:44:31.266Z,25.22
2023-02-05T03:45:31.322Z,25.23
2023-02-05T03:46:31.182Z,25.23
2023-02-05T03:47:31.147Z,25.23
2023-02-05T03:48:31.104Z,25.25
2023-02-05T03:49:31.067Z,25.22
2023-02-05T03:50:31.041Z,25.25
2023-02-05T03:51:31.018Z,25.25
2023-02-05T03:52:30.964Z,25.22
2023-02-05T03:53:30.901Z,25.25
2023-02-05T03:54:30.858Z,25.23
2023-02-05T03:55:30.841Z,25.23
2023-02-05T03:56:30.799Z,25.25
2023-02-05T03:57:30.744Z,25.21
2023-02-05T03:58:30.705Z,25.22
2023-02-05T03:59:30.658Z,25.25
2023-02-05T04:00:30.623Z,25.22
2023-02-05T04:01:30.578Z,25.23
2023-02-05T04:02:30.650Z,25.22
2023-02-05T04:03:30.494Z,25.22
2023-02-05T04:04:30.447Z,25.21
2023-02-05T04:05:30.410Z,25.21
2023-02-05T04:06:30.369Z,25.21
2023-02-05T04:07:30.357Z,25.22
2023-02-05T04:08:30.293Z,25.21
2023-02-05T04:09:30.277Z,25.23
2023-02-05T04:10:30.216Z,25.22
2023-02-05T04:11:30.176Z,25.23
2023-02-05T04:12:30.129Z,25.21
2023-02-05T04:13:30.088Z,25.21
2023-02-05T04:14:30.062Z,25.22
2023-02-05T04:15:30.044Z,25.22
2023-02-05T04:16:30.025Z,25.21
2023-02-05T04:17:29.938Z,25.21
2023-02-05T04:18:29.896Z,25.17
2023-02-05T04:19:29.856Z,25.19
2023-02-05T04:20:29.838Z,25.21
2023-02-05T04:21:29.779Z,25.21
2023-02-05T04:22:29.742Z,25.22
2023-02-05T04:23:29.729Z,25.21
2023-02-05T04:24:29.674Z,25.21
2023-02-05T04:25:29.653Z,25.21
2023-02-05T04:26:29.598Z,25.18
2023-02-05T04:27:29.555Z,25.18
2023-02-05T04:28:29.514Z,25.19
2023-02-05T04:29:29.546Z,25.21
2023-02-05T04:30:29.453Z,25.19
2023-02-05T04:31:29.427Z,25.19
2023-02-05T04:32:29.361Z,25.19
2023-02-05T04:33:29.322Z,25.22
2023-02-05T04:34:29.287Z,25.22
2023-02-05T04:35:29.257Z,25.19
2023-02-05T04:36:29.227Z,25.23
2023-02-05T04:37:29.180Z,25.21
2023-02-05T04:38:29.143Z,25.19
2023-02-05T04:39:29.174Z,25.19
2023-02-05T04:40:29.063Z,25.21
2023-02-05T04:41:29.047Z,25.21
2023-02-05T04:42:28.996Z,25.21
2023-02-05T04:43:28.959Z,25.19
2023-02-05T04:44:28.916Z,25.18
2023-02-05T04:45:28.884Z,25.21
2023-02-05T04:46:28.851Z,25.19
2023-02-05T04:47:28.814Z,25.21
2023-02-05T04:48:28.770Z,25.23
2023-02-05T04:49:29.681Z,25.18
2023-02-05T04:50:28.701Z,25.21
2023-02-05T04:51:28.660Z,25.18
2023-02-05T04:52:28.666Z,25.19
2023-02-05T04:53:28.594Z,25.21
2023-02-05T04:54:28.568Z,25.18
2023-02-05T04:55:28.543Z,25.17
2023-02-05T04:56:28.481Z,25.21
2023-02-05T04:57:28.454Z,25.18
2023-02-05T04:58:28.416Z,25.22
2023-02-05T04:59:28.374Z,25.19
2023-02-05T05:00:28.341Z,25.21
2023-02-05T05:01:28.343Z,25.18
2023-02-05T05:02:28.265Z,25.19
2023-02-05T05:03:28.232Z,25.18
2023-02-05T05:04:28.196Z,25.18
2023-02-05T05:05:28.160Z,25.19
2023-02-05T05:06:28.145Z,25.18
2023-02-05T05:07:28.122Z,25.18
2023-02-05T05:08:28.051Z,25.18
2023-02-05T05:09:28.025Z,25.17
2023-02-05T05:10:27.992Z,25.18
2023-02-05T05:11:27.966Z,25.19
2023-02-05T05:12:27.942Z,25.22
2023-02-05T05:13:27.888Z,25.18
2023-02-05T05:14:27.846Z,25.19
2023-02-05T05:15:27.805Z,25.18
2023-02-05T05:16:27.770Z,25.19
2023-02-05T05:17:27.797Z,25.21
2023-02-05T05:18:27.691Z,25.19
2023-02-05T05:19:27.677Z,25.19
2023-02-05T05:20:27.622Z,25.19
2023-02-05T05:21:27.603Z,25.19
2023-02-05T05:22:27.550Z,25.18
2023-02-05T05:23:27.532Z,25.18
2023-02-05T05:24:27.496Z,25.21
2023-02-05T05:25:27.442Z,25.18
2023-02-05T05:26:27.411Z,25.18
2023-02-05T05:27:27.426Z,25.19
2023-02-05T05:28:27.327Z,25.21
2023-02-05T05:29:27.289Z,25.21
2023-02-05T05:30:27.253Z,25.19
2023-02-05T05:31:27.221Z,25.19
2023-02-05T05:32:27.243Z,25.19
2023-02-05T05:33:27.140Z,25.19
2023-02-05T05:34:27.119Z,25.18
2023-02-05T05:35:27.068Z,25.21
2023-02-05T05:36:27.026Z,25.18
2023-02-05T05:37:27.025Z,25.17
2023-02-05T05:38:26.956Z,25.18
2023-02-05T05:39:26.919Z,25.18
2023-02-05T05:40:26.879Z,25.17
2023-02-05T05:41:26.849Z,25.17
2023-02-05T05:42:26.828Z,25.18
2023-02-05T05:43:26.811Z,25.17
2023-02-05T05:44:26.717Z,25.18
2023-02-05T05:45:26.691Z,25.18
2023-02-05T05:46:26.733Z,25.18
2023-02-05T05:47:26.633Z,25.18
2023-02-05T05:48:26.611Z,25.19
2023-02-05T05:49:26.545Z,25.19
2023-02-05T05:50:26.506Z,25.17
2023-02-05T05:51:26.465Z,25.15
2023-02-05T05:52:26.426Z,25.17
2023-02-05T05:53:26.421Z,25.19
2023-02-05T05:54:26.365Z,25.18
2023-02-05T05:55:26.359Z,25.18
2023-02-05T05:56:26.290Z,25.18
2023-02-05T05:57:26.282Z,25.19
2023-02-05T05:58:26.217Z,25.18
2023-02-05T05:59:26.205Z,25.19
2023-02-05T06:00:26.133Z,25.18
2023-02-05T06:01:26.115Z,25.18
2023-02-05T06:02:26.119Z,25.19
2023-02-05T06:03:26.034Z,25.19
2023-02-05T06:04:26.005Z,25.17
2023-02-05T06:05:25.949Z,25.19
2023-02-05T06:06:25.933Z,25.18
2023-02-05T06:07:25.875Z,25.17
2023-02-05T06:08:25.857Z,25.19
2023-02-05T06:09:26.598Z,25.17
2023-02-05T06:10:25.765Z,25.18
2023-02-05T06:11:25.756Z,25.18
2023-02-05T06:12:25.702Z,25.17
2023-02-05T06:13:25.686Z,25.17
2023-02-05T06:14:25.620Z,25.19
2023-02-05T06:15:25.619Z,25.18
2023-02-05T06:16:25.547Z,25.18
2023-02-05T06:17:25.513Z,25.17
2023-02-05T06:18:25.668Z,25.15
2023-02-05T06:19:25.473Z,25.19
2023-02-05T06:20:25.412Z,25.19
2023-02-05T06:21:25.386Z,25.17
2023-02-05T06:22:25.340Z,25.18
2023-02-05T06:23:25.298Z,25.17
2023-02-05T06:24:25.295Z,25.18
2023-02-05T06:25:25.224Z,25.17
2023-02-05T06:26:25.193Z,25.18
2023-02-05T06:27:25.151Z,25.17
2023-02-05T06:28:25.135Z,25.18
2023-02-05T06:29:25.086Z,25.18
2023-02-05T06:30:25.048Z,25.17
2023-02-05T06:31:25.101Z,25.18
2023-02-05T06:32:26.791Z,25.17
2023-02-05T06:33:24.949Z,25.18
2023-02-05T06:34:24.971Z,25.18
2023-02-05T06:35:24.886Z,25.17
2023-02-05T06:36:24.848Z,25.18
2023-02-05T06:37:28.934Z,25.17
2023-02-05T06:38:24.806Z,25.18
2023-02-05T06:39:25.316Z,25.17
2023-02-05T06:40:24.708Z,25.17
2023-02-05T06:41:24.683Z,25.15
2023-02-05T06:42:24.649Z,25.17
2023-02-05T06:43:24.652Z,25.18
2023-02-05T06:44:24.588Z,25.17
2023-02-05T06:45:24.566Z,25.17
2023-02-05T06:46:24.611Z,25.17
2023-02-05T06:47:24.514Z,25.17
2023-02-05T06:48:24.453Z,25.15
2023-02-05T06:49:24.458Z,25.18
2023-02-05T06:50:24.384Z,25.15
2023-02-05T06:51:24.444Z,25.18
2023-02-05T06:52:24.323Z,25.17
2023-02-05T06:53:24.283Z,25.15
2023-02-05T06:54:24.267Z,25.17
2023-02-05T06:55:24.218Z,25.15
2023-02-05T06:56:24.224Z,25.17
2023-02-05T06:57:24.154Z,25.17
2023-02-05T06:58:24.117Z,25.17
2023-02-05T06:59:24.109Z,25.15
2023-02-05T07:00:24.052Z,25.18
2023-02-05T07:01:24.047Z,25.19
2023-02-05T07:02:23.981Z,25.15
2023-02-05T07:03:24.054Z,25.17
2023-02-05T07:04:24.381Z,25.15
2023-02-05T07:05:23.867Z,25.15
2023-02-05T07:06:23.825Z,25.17
2023-02-05T07:07:23.795Z,25.15
2023-02-05T07:08:23.759Z,25.15
2023-02-05T07:09:23.731Z,25.15
2023-02-05T07:10:23.717Z,25.18
2023-02-05T07:11:23.684Z,25.18
2023-02-05T07:12:23.634Z,25.17
2023-02-05T07:13:23.601Z,25.17
2023-02-05T07:14:23.562Z,25.15
2023-02-05T07:15:23.534Z,25.17
2023-02-05T07:16:23.523Z,25.15
2023-02-05T07:17:23.460Z,25.15
2023-02-05T07:18:23.451Z,25.18
2023-02-05T07:19:23.475Z,25.17
2023-02-05T07:20:23.368Z,25.18
2023-02-05T07:21:23.320Z,25.19
2023-02-05T07:22:23.309Z,25.19
2023-02-05T07:23:23.271Z,25.18
2023-02-05T07:24:23.201Z,25.18
2023-02-05T07:25:23.169Z,25.17
2023-02-05T07:26:23.124Z,25.15
2023-02-05T07:27:23.093Z,25.17
2023-02-05T07:28:23.050Z,25.17
2023-02-05T07:29:23.048Z,25.15
2023-02-05T07:30:22.978Z,25.18
2023-02-05T07:31:23.122Z,25.17
2023-02-05T07:32:22.926Z,25.19
2023-02-05T07:33:22.873Z,25.17
2023-02-05T07:34:22.871Z,25.18
2023-02-05T07:35:22.825Z,25.15
2023-02-05T07:36:22.766Z,25.19
2023-02-05T07:37:22.729Z,25.18
2023-02-05T07:38:22.710Z,25.18
2023-02-05T07:39:22.705Z,25.18
2023-02-05T07:40:22.628Z,25.18
2023-02-05T07:41:22.610Z,25.17
2023-02-05T07:42:22.558Z,25.17
2023-02-05T07:43:22.532Z,25.17
2023-02-05T07:44:22.520Z,25.18
2023-02-05T07:45:22.458Z,25.17
2023-02-05T07:46:22.475Z,25.18
2023-02-05T07:47:22.383Z,25.19
2023-02-05T07:48:22.347Z,25.18
2023-02-05T07:49:22.330Z,25.17
2023-02-05T07:50:22.271Z,25.15
2023-02-05T07:51:22.276Z,25.18
2023-02-05T07:52:22.199Z,25.15
2023-02-05T07:53:22.157Z,25.18
2023-02-05T07:54:22.127Z,25.17
2023-02-05T07:55:22.139Z,25.19
2023-02-05T07:56:22.073Z,25.15
2023-02-05T07:57:22.014Z,25.21
2023-02-05T07:58:22.008Z,25.18
2023-02-05T07:59:22.003Z,25.15
2023-02-05T08:00:21.919Z,25.17
2023-02-05T08:01:21.939Z,25.17
2023-02-05T08:02:21.839Z,25.17
2023-02-05T08:03:23.372Z,25.18
2023-02-05T08:04:21.893Z,25.15
2023-02-05T08:05:21.851Z,25.18
2023-02-05T08:06:21.801Z,25.19
2023-02-05T08:07:21.781Z,25.17
2023-02-05T08:08:21.721Z,25.18
2023-02-05T08:09:21.694Z,25.18
2023-02-05T08:10:21.670Z,25.18
2023-02-05T08:11:21.638Z,25.18
2023-02-05T08:12:21.607Z,25.18
2023-02-05T08:13:21.541Z,25.15
2023-02-05T08:14:21.509Z,25.19
2023-02-05T08:15:21.481Z,25.18
2023-02-05T08:16:21.494Z,25.18
2023-02-05T08:17:21.408Z,25.19
2023-02-05T08:18:21.368Z,25.19
2023-02-05T08:19:21.327Z,25.15
2023-02-05T08:20:21.292Z,25.18
2023-02-05T08:21:21.293Z,25.21
2023-02-05T08:22:21.227Z,25.18
2023-02-05T08:23:21.212Z,25.21
2023-02-05T08:24:21.156Z,25.19
2023-02-05T08:25:21.121Z,25.19
2023-02-05T08:26:21.185Z,25.19
2023-02-05T08:27:21.046Z,25.21
2023-02-05T08:28:21.012Z,25.19
2023-02-05T08:29:20.973Z,25.19
2023-02-05T08:30:20.945Z,25.19
2023-02-05T08:31:20.946Z,25.21
2023-02-05T08:32:20.863Z,25.19
2023-02-05T08:33:20.822Z,25.21
2023-02-05T08:34:21.085Z,25.19
2023-02-05T08:35:20.738Z,25.19
2023-02-05T08:36:20.706Z,25.23
2023-02-05T08:37:20.658Z,25.19
2023-02-05T08:38:20.620Z,25.19
2023-02-05T08:39:20.619Z,25.21
2023-02-05T08:40:20.572Z,25.19
2023-02-05T08:41:20.523Z,25.22
2023-02-05T08:42:20.468Z,25.21
2023-02-05T08:43:20.431Z,25.21
2023-02-05T08:44:20.402Z,25.25
2023-02-05T08:45:20.420Z,25.22
2023-02-05T08:46:20.330Z,25.23
2023-02-05T08:47:20.299Z,25.22
2023-02-05T08:48:20.255Z,25.23
2023-02-05T08:49:20.234Z,25.23
2023-02-05T08:50:20.238Z,25.23
2023-02-05T08:51:20.159Z,25.22
2023-02-05T08:52:20.107Z,25.23
2023-02-05T08:53:20.070Z,25.22
2023-02-05T08:54:20.031Z,25.22
2023-02-05T08:55:20.057Z,25.23
2023-02-05T08:56:20.448Z,25.22
2023-02-05T08:57:19.950Z,25.22
2023-02-05T08:58:19.905Z,25.25
2023-02-05T08:59:19.836Z,25.23
2023-02-05T09:00:19.830Z,25.23
2023-02-05T09:01:19.852Z,25.22
2023-02-05T09:02:19.825Z,25.23
2023-02-05T09:03:19.690Z,25.23
2023-02-05T09:04:19.737Z,25.23
2023-02-05T09:05:19.609Z,25.22
2023-02-05T09:06:19.579Z,25.22
2023-02-05T09:07:19.590Z,25.22
2023-02-05T09:08:19.494Z,25.26
2023-02-05T09:09:19.459Z,25.25
2023-02-05T09:10:19.418Z,25.26
2023-02-05T09:11:19.411Z,25.23
2023-02-05T09:12:19.392Z,25.23
2023-02-05T09:13:19.342Z,25.23
2023-02-05T09:14:19.277Z,25.25
2023-02-05T09:15:19.239Z,25.23
2023-02-05T09:16:19.256Z,25.23
2023-02-05T09:17:19.161Z,25.28
2023-02-05T09:18:19.119Z,25.25
2023-02-05T09:19:19.078Z,25.23
2023-02-05T09:20:19.064Z,25.23
2023-02-05T09:21:19.027Z,25.23
2023-02-05T09:22:18.952Z,25.25
2023-02-05T09:23:18.988Z,25.26
2023-02-05T09:24:18.873Z,25.23
2023-02-05T09:25:18.835Z,25.26
2023-02-05T09:26:18.792Z,25.23
2023-02-05T09:27:18.787Z,25.23
2023-02-05T09:28:18.887Z,25.25
2023-02-05T09:29:18.671Z,25.23
2023-02-05T09:30:18.636Z,25.23
2023-02-05T09:31:18.710Z,25.25
2023-02-05T09:32:18.553Z,25.25
2023-02-05T09:33:18.520Z,25.25
2023-02-05T09:34:18.492Z,25.28
2023-02-05T09:35:18.465Z,25.28
2023-02-05T09:36:18.396Z,25.28
2023-02-05T09:37:18.367Z,25.28
2023-02-05T09:38:18.317Z,25.26
2023-02-05T09:39:44.066Z,25.26
2023-02-05T09:40:20.868Z,25.26
2023-02-05T09:41:18.197Z,25.29
2023-02-05T09:42:18.163Z,25.26
2023-02-05T09:43:18.204Z,25.28
2023-02-05T09:44:18.067Z,25.28
2023-02-05T09:45:18.042Z,25.28
2023-02-05T09:46:18.063Z,25.28
2023-02-05T09:47:17.948Z,25.25
2023-02-05T09:48:17.905Z,25.26
2023-02-05T09:49:17.862Z,25.26
2023-02-05T09:50:17.816Z,25.28
2023-02-05T09:51:17.766Z,25.29
2023-02-05T09:52:17.719Z,25.28
2023-02-05T09:53:17.699Z,25.26
2023-02-05T09:54:17.639Z,25.29
2023-02-05T09:55:17.584Z,25.29
2023-02-05T09:56:17.618Z,25.29
2023-02-05T09:57:17.500Z,25.26
2023-02-05T09:58:17.453Z,25.28
2023-02-05T09:59:17.447Z,25.28
2023-02-05T10:00:17.372Z,25.29
2023-02-05T10:01:17.378Z,25.31
2023-02-05T10:02:17.284Z,25.29
2023-02-05T10:03:17.241Z,25.28
2023-02-05T10:04:17.232Z,25.29
2023-02-05T10:05:17.153Z,25.28
2023-02-05T10:06:17.149Z,25.28
2023-02-05T10:07:17.090Z,25.29
2023-02-05T10:08:17.040Z,25.29
2023-02-05T10:09:17.017Z,25.29
2023-02-05T10:10:16.962Z,25.29
2023-02-05T10:11:16.946Z,25.31
2023-02-05T10:12:16.876Z,25.31
2023-02-05T10:13:16.835Z,25.29
2023-02-05T10:14:16.797Z,25.31
2023-02-05T10:15:16.799Z,25.32
2023-02-05T10:16:16.847Z,25.31
2023-02-05T10:17:16.691Z,25.31
2023-02-05T10:18:16.645Z,25.31
2023-02-05T10:19:16.605Z,25.29
2023-02-05T10:20:16.563Z,25.32
2023-02-05T10:21:16.553Z,25.29
2023-02-05T10:22:16.495Z,25.31
2023-02-05T10:23:16.466Z,25.32
2023-02-05T10:24:16.411Z,25.31
2023-02-05T10:25:16.368Z,25.29
2023-02-05T10:26:16.361Z,25.31
2023-02-05T10:27:16.293Z,25.31
2023-02-05T10:28:16.303Z,25.29
2023-02-05T10:29:16.212Z,25.29
2023-02-05T10:30:16.177Z,25.29
2023-02-05T10:31:16.345Z,25.32
2023-02-05T10:32:16.092Z,25.32
2023-02-05T10:33:16.052Z,25.32
2023-02-05T10:34:16.015Z,25.32
2023-02-05T10:35:15.976Z,25.33
2023-02-05T10:36:15.986Z,25.31
2023-02-05T10:37:15.916Z,25.33
2023-02-05T10:38:15.851Z,25.31
2023-02-05T10:39:15.817Z,25.32
2023-02-05T10:40:15.800Z,25.32
2023-02-05T10:41:15.770Z,25.31
2023-02-05T10:42:15.693Z,25.33
2023-02-05T10:43:15.652Z,25.35
2023-02-05T10:44:15.612Z,25.33
2023-02-05T10:45:16.842Z,25.33
2023-02-05T10:46:15.654Z,25.33
2023-02-05T10:47:15.507Z,25.36
2023-02-05T10:48:15.444Z,25.35
2023-02-05T10:49:15.398Z,25.36
2023-02-05T10:50:15.401Z,25.33
2023-02-05T10:51:15.312Z,25.35
2023-02-05T10:52:15.269Z,25.35
2023-02-05T10:53:15.227Z,25.35
2023-02-05T10:54:15.186Z,25.35
2023-02-05T10:55:15.172Z,25.36
2023-02-05T10:56:15.106Z,25.33
2023-02-05T10:57:15.060Z,25.33
2023-02-05T10:58:15.015Z,25.33
2023-02-05T10:59:14.970Z,25.32
2023-02-05T11:00:15.044Z,25.33
2023-02-05T11:01:14.941Z,25.36
2023-02-05T11:02:14.854Z,25.35
2023-02-05T11:03:14.828Z,25.35
2023-02-05T11:04:14.764Z,25.35
2023-02-05T11:05:14.786Z,25.35
2023-02-05T11:06:14.685Z,25.36
2023-02-05T11:07:14.651Z,25.38
2023-02-05T11:08:14.603Z,25.36
2023-02-05T11:09:14.561Z,25.39
2023-02-05T11:10:14.553Z,25.36
2023-02-05T11:11:14.485Z,25.33
2023-02-05T11:12:14.445Z,25.33
2023-02-05T11:13:14.449Z,25.33
2023-02-05T11:14:14.370Z,25.38
2023-02-05T11:15:14.336Z,25.33
2023-02-05T11:16:14.318Z,25.33
2023-02-05T11:17:14.314Z,25.35
2023-02-05T11:18:14.257Z,25.36
2023-02-05T11:19:14.851Z,25.35
2023-02-05T11:20:14.223Z,25.33
2023-02-05T11:21:14.096Z,25.35
2023-02-05T11:22:14.055Z,25.36
2023-02-05T11:23:14.041Z,25.35
2023-02-05T11:24:13.982Z,25.35
2023-02-05T11:25:13.938Z,25.33
2023-02-05T11:26:13.904Z,25.33
2023-02-05T11:27:13.863Z,25.33
2023-02-05T11:28:13.910Z,25.35
2023-02-05T11:29:13.794Z,25.33
2023-02-05T11:30:13.759Z,25.36
2023-02-05T11:31:13.886Z,25.33
2023-02-05T11:32:13.978Z,25.32
2023-02-05T11:33:13.692Z,25.35
2023-02-05T11:34:13.610Z,25.35
2023-02-05T11:35:13.608Z,25.36
2023-02-05T11:36:13.536Z,25.36
2023-02-05T11:37:13.495Z,25.33
2023-02-05T11:38:13.460Z,25.33
2023-02-05T11:39:13.427Z,25.35
2023-02-05T11:40:13.412Z,25.36
2023-02-05T11:41:13.346Z,25.36
2023-02-05T11:42:13.308Z,25.36
2023-02-05T11:43:13.305Z,25.36
2023-02-05T11:44:13.264Z,25.36
2023-02-05T11:45:13.203Z,25.36
2023-02-05T11:46:13.213Z,25.35
2023-02-05T11:47:13.113Z,25.39
2023-02-05T11:48:13.077Z,25.41
2023-02-05T11:49:13.096Z,25.39
2023-02-05T11:50:12.999Z,25.39
2023-02-05T11:51:12.995Z,25.39
2023-02-05T11:52:12.937Z,25.35
2023-02-05T11:53:12.883Z,25.36
2023-02-05T11:54:12.870Z,25.36
2023-02-05T11:55:12.805Z,25.39
2023-02-05T11:56:12.766Z,25.38
2023-02-05T11:57:12.729Z,25.38
2023-02-05T11:58:12.686Z,25.38
2023-02-05T11:59:12.672Z,25.41
2023-02-05T12:00:12.621Z,25.39
2023-02-05T12:01:12.573Z,25.38
2023-02-05T12:02:12.592Z,25.39
2023-02-05T12:03:12.515Z,25.39
2023-02-05T12:04:12.506Z,25.38
2023-02-05T12:05:12.422Z,25.38
2023-02-05T12:06:12.388Z,25.38
2023-02-05T12:07:12.388Z,25.35
2023-02-05T12:08:12.317Z,25.41
2023-02-05T12:09:12.295Z,25.41
2023-02-05T12:10:12.240Z,25.36
2023-02-05T12:11:12.192Z,25.39
2023-02-05T12:12:12.147Z,25.38
2023-02-05T12:13:12.141Z,25.38
2023-02-05T12:14:12.090Z,25.38
2023-02-05T12:15:12.033Z,25.36
2023-02-05T12:16:12.024Z,25.35
2023-02-05T12:17:11.946Z,25.35
2023-02-05T12:18:11.901Z,25.36
2023-02-05T12:19:11.885Z,25.41
2023-02-05T12:20:11.825Z,25.39
2023-02-05T12:21:11.788Z,25.36
2023-02-05T12:22:11.747Z,25.35
2023-02-05T12:23:11.734Z,25.38
2023-02-05T12:24:11.700Z,25.36
2023-02-05T12:25:11.628Z,25.39
2023-02-05T12:26:11.660Z,25.38
2023-02-05T12:27:11.554Z,25.38
2023-02-05T12:28:11.602Z,25.36
2023-02-05T12:29:11.477Z,25.38
2023-02-05T12:30:11.439Z,25.38
2023-02-05T12:31:11.400Z,25.35
2023-02-05T12:32:11.351Z,25.35
2023-02-05T12:33:11.307Z,25.35
2023-02-05T12:34:11.276Z,25.32
2023-02-05T12:35:11.239Z,25.35
2023-02-05T12:36:11.225Z,25.35
2023-02-05T12:37:11.168Z,25.33
2023-02-05T12:38:11.622Z,25.33
2023-02-05T12:39:11.114Z,25.32
2023-02-05T12:40:11.046Z,25.33
2023-02-05T12:41:11.016Z,25.33
2023-02-05T12:42:10.976Z,25.32
2023-02-05T12:43:10.951Z,25.33
2023-02-05T12:44:10.908Z,25.32
2023-02-05T12:45:10.872Z,25.32
2023-02-05T12:46:10.897Z,25.33
2023-02-05T12:47:10.804Z,25.33
2023-02-05T12:48:10.764Z,25.32
2023-02-05T12:49:10.727Z,25.32
2023-02-05T12:50:10.728Z,25.32
2023-02-05T12:51:10.647Z,25.32
2023-02-05T12:52:10.615Z,25.33
2023-02-05T12:53:10.579Z,25.32
2023-02-05T12:54:10.538Z,25.32
2023-02-05T12:55:10.559Z,25.32
2023-02-05T12:56:10.474Z,25.31
2023-02-05T12:57:10.446Z,25.32
2023-02-05T12:58:10.419Z,25.31
2023-02-05T12:59:10.374Z,25.32
2023-02-05T13:00:10.389Z,25.31
2023-02-05T13:01:10.350Z,25.29
2023-02-05T13:02:10.263Z,25.31
2023-02-05T13:03:10.245Z,25.32
2023-02-05T13:04:10.234Z,25.31
2023-02-05T13:05:10.209Z,25.31
2023-02-05T13:06:10.133Z,25.31
2023-02-05T13:07:10.102Z,25.29
2023-02-05T13:08:10.071Z,25.29
2023-02-05T13:09:10.053Z,25.31
2023-02-05T13:10:09.989Z,25.28
2023-02-05T13:11:09.982Z,25.31
2023-02-05T13:12:09.915Z,25.31
2023-02-05T13:13:09.879Z,25.29
2023-02-05T13:14:09.842Z,25.29
2023-02-05T13:15:09.799Z,25.31
2023-02-05T13:16:09.764Z,25.32
2023-02-05T13:17:09.723Z,25.31
2023-02-05T13:18:09.683Z,25.28
2023-02-05T13:19:09.641Z,25.29
2023-02-05T13:20:09.595Z,25.28
2023-02-05T13:21:09.571Z,25.28
2023-02-05T13:22:09.515Z,25.29
2023-02-05T13:23:09.476Z,25.28
2023-02-05T13:24:09.429Z,25.31
2023-02-05T13:25:09.396Z,25.29
2023-02-05T13:26:09.351Z,25.29
2023-02-05T13:27:09.335Z,25.29
2023-02-05T13:28:10.099Z,25.29
2023-02-05T13:29:09.224Z,25.31
2023-02-05T13:30:09.197Z,25.29
2023-02-05T13:31:09.314Z,25.29
2023-02-05T13:32:15.757Z,25.31
2023-02-05T13:33:09.065Z,25.31
2023-02-05T13:34:09.026Z,25.29
2023-02-05T13:35:08.985Z,25.29
2023-02-05T13:36:08.980Z,25.31
2023-02-05T13:37:08.927Z,25.31
2023-02-05T13:38:08.879Z,25.29
2023-02-05T13:39:08.846Z,25.31
2023-02-05T13:40:08.810Z,25.29
2023-02-05T13:41:08.806Z,25.32
2023-02-05T13:42:08.738Z,25.29
2023-02-05T13:43:08.733Z,25.28
2023-02-05T13:44:08.662Z,25.28
2023-02-05T13:45:08.658Z,25.26
2023-02-05T13:46:08.700Z,25.29
2023-02-05T13:47:08.639Z,25.25
2023-02-05T13:48:08.529Z,25.28
2023-02-05T13:49:08.492Z,25.28
2023-02-05T13:50:08.456Z,25.28
2023-02-05T13:51:08.444Z,25.26
2023-02-05T13:52:08.395Z,25.26
2023-02-05T13:53:08.351Z,25.26
2023-02-05T13:54:08.313Z,25.28
2023-02-05T13:55:08.283Z,25.28
2023-02-05T13:56:08.287Z,25.28
2023-02-05T13:57:08.213Z,25.26
2023-02-05T13:58:08.180Z,25.26
2023-02-05T13:59:08.180Z,25.28
2023-02-05T14:00:08.123Z,25.31
2023-02-05T14:01:08.184Z,25.28
2023-02-05T14:02:08.123Z,25.26
2023-02-05T14:03:08.026Z,25.28
2023-02-05T14:04:07.985Z,25.28
2023-02-05T14:05:07.955Z,25.26
2023-02-05T14:06:07.922Z,25.28
2023-02-05T14:07:07.929Z,25.28
2023-02-05T14:08:07.854Z,25.29
2023-02-05T14:09:07.828Z,25.26
2023-02-05T14:10:07.853Z,25.28
2023-02-05T14:11:07.747Z,25.28
2023-02-05T14:12:07.719Z,25.26
2023-02-05T14:13:07.685Z,25.28
2023-02-05T14:14:07.654Z,25.28
2023-02-05T14:15:07.644Z,25.26
2023-02-05T14:16:07.673Z,25.26
2023-02-05T14:17:07.575Z,25.28
2023-02-05T14:18:07.512Z,25.26
2023-02-05T14:19:07.487Z,25.25
2023-02-05T14:20:07.533Z,25.28
2023-02-05T14:21:07.418Z,25.28
2023-02-05T14:22:07.527Z,25.25
2023-02-05T14:23:07.361Z,25.26
2023-02-05T14:24:07.328Z,25.26
2023-02-05T14:25:07.302Z,25.28
2023-02-05T14:26:07.263Z,25.25
2023-02-05T14:27:07.225Z,25.23
2023-02-05T14:28:07.363Z,25.28
2023-02-05T14:29:07.159Z,25.25
2023-02-05T14:30:07.151Z,25.22
2023-02-05T14:31:07.277Z,25.26
2023-02-05T14:32:08.926Z,25.25
2023-02-05T14:33:07.016Z,25.26
2023-02-05T14:34:17.763Z,25.25
2023-02-05T14:35:06.946Z,25.23
2023-02-05T14:36:06.992Z,25.25
2023-02-05T14:37:06.886Z,25.26
2023-02-05T14:38:06.856Z,25.25
2023-02-05T14:39:06.828Z,25.23
2023-02-05T14:40:06.819Z,25.25
2023-02-05T14:41:06.769Z,25.26
2023-02-05T14:42:06.776Z,25.25
2023-02-05T14:43:10.507Z,25.26
2023-02-05T14:44:06.638Z,25.25
2023-02-05T14:45:06.627Z,25.23
2023-02-05T14:46:06.607Z,25.25
2023-02-05T14:47:06.591Z,25.25
2023-02-05T14:48:06.488Z,25.25
2023-02-05T14:49:06.447Z,25.25
2023-02-05T14:50:06.499Z,25.25
2023-02-05T14:51:06.379Z,25.26
2023-02-05T14:52:06.331Z,25.23
2023-02-05T14:53:06.290Z,25.25
2023-02-05T14:54:06.246Z,25.25
2023-02-05T14:55:06.211Z,25.26
2023-02-05T14:56:06.180Z,25.25
2023-02-05T14:57:06.166Z,25.23
2023-02-05T14:58:06.138Z,25.23
2023-02-05T14:59:06.058Z,25.23
2023-02-05T15:00:06.100Z,25.23
2023-02-05T15:01:05.991Z,25.25
2023-02-05T15:02:05.975Z,25.25
2023-02-05T15:03:05.949Z,25.25
2023-02-05T15:04:05.870Z,25.25
2023-02-05T15:05:05.827Z,25.25
2023-02-05T15:06:05.788Z,25.23
2023-02-05T15:07:05.775Z,25.25
2023-02-05T15:08:05.705Z,25.23
2023-02-05T15:09:05.667Z,25.23
2023-02-05T15:10:05.708Z,25.23
2023-02-05T15:11:05.586Z,25.26
2023-02-05T15:12:05.588Z,25.23
2023-02-05T15:13:05.511Z,25.25
2023-02-05T15:14:05.470Z,25.28
2023-02-05T15:15:05.430Z,25.25
2023-02-05T15:16:05.440Z,25.26
2023-02-05T15:17:05.353Z,25.25
2023-02-05T15:18:05.304Z,25.26
2023-02-05T15:19:05.330Z,25.23
2023-02-05T15:20:05.358Z,25.26